createdAt,value
2018-06-22T00:02:24.434Z,12.13
2018-06-22T00:04:53.061Z,12.13
2018-06-22T00:07:21.714Z,12.00
2018-06-22T00:09:50.389Z,11.80
2018-06-22T00:12:19.022Z,12.00
2018-06-22T00:14:47.653Z,11.87
2018-06-22T00:17:16.287Z,11.40
2018-06-22T00:19:44.894Z,11.53
2018-06-22T00:22:13.583Z,12.00
2018-06-22T00:24:42.229Z,12.00
2018-06-22T00:27:11.814Z,11.50
2018-06-22T00:29:40.461Z,11.40
2018-06-22T00:32:09.046Z,11.30
2018-06-22T00:34:37.703Z,11.80
2018-06-22T00:37:06.659Z,10.67
2018-06-22T00:39:35.309Z,11.60
2018-06-22T00:42:03.963Z,10.90
2018-06-22T00:44:32.934Z,10.83
2018-06-22T00:47:01.598Z,11.83
2018-06-22T00:49:30.293Z,11.57
2018-06-22T00:51:59.011Z,11.17
2018-06-22T00:54:27.632Z,10.90
2018-06-22T00:56:56.297Z,10.53
2018-06-22T00:59:24.961Z,11.37
2018-06-22T01:01:53.588Z,11.13
2018-06-22T01:04:22.239Z,10.87
2018-06-22T01:06:50.896Z,11.43
2018-06-22T01:09:19.580Z,11.10
2018-06-22T01:11:48.228Z,11.23
2018-06-22T01:14:16.906Z,12.17
2018-06-22T01:16:45.623Z,11.27
2018-06-22T01:19:14.266Z,11.37
2018-06-22T01:21:42.864Z,10.40
2018-06-22T01:24:11.484Z,10.37
2018-06-22T01:26:40.106Z,10.47
2018-06-22T01:29:13.895Z,9.63
2018-06-22T01:31:42.549Z,10.53
2018-06-22T01:34:11.182Z,10.67
2018-06-22T01:36:39.865Z,10.97
2018-06-22T01:39:09.265Z,10.97
2018-06-22T01:41:37.915Z,11.53
2018-06-22T01:44:06.557Z,10.90
2018-06-22T01:46:35.715Z,11.23
2018-06-22T01:49:04.652Z,11.43
2018-06-22T01:51:33.315Z,12.17
2018-06-22T01:54:02.050Z,12.10
2018-06-22T01:56:30.714Z,12.70
2018-06-22T01:58:59.400Z,14.37
2018-06-22T02:01:28.078Z,14.30
2018-06-22T02:03:56.778Z,12.00
2018-06-22T02:06:25.431Z,12.17
2018-06-22T02:08:54.082Z,12.53
2018-06-22T02:11:22.762Z,12.07
2018-06-22T02:13:51.518Z,12.57
2018-06-22T02:16:20.231Z,12.80
2018-06-22T02:18:48.859Z,13.13
2018-06-22T02:21:17.497Z,13.53
2018-06-22T02:23:46.238Z,14.00
2018-06-22T02:26:14.905Z,12.83
2018-06-22T02:28:43.602Z,13.63
2018-06-22T02:31:12.444Z,13.30
2018-06-22T02:33:41.282Z,13.70
2018-06-22T02:36:09.933Z,13.37
2018-06-22T02:38:38.573Z,13.70
2018-06-22T02:41:07.488Z,13.37
2018-06-22T02:43:36.499Z,14.30
2018-06-22T02:46:05.878Z,14.00
2018-06-22T02:48:34.552Z,14.63
2018-06-22T02:51:03.178Z,14.13
2018-06-22T02:53:31.827Z,14.37
2018-06-22T02:56:00.783Z,15.10
2018-06-22T02:58:29.484Z,14.93
2018-06-22T03:00:58.229Z,14.37
2018-06-22T03:03:26.867Z,13.80
2018-06-22T03:05:55.571Z,15.73
2018-06-22T03:08:24.270Z,14.20
2018-06-22T03:10:52.946Z,14.50
2018-06-22T03:13:21.590Z,14.07
2018-06-22T03:15:50.479Z,14.30
2018-06-22T03:18:19.174Z,13.87
2018-06-22T03:20:47.820Z,14.53
2018-06-22T03:23:16.538Z,14.60
2018-06-22T03:25:45.145Z,14.30
2018-06-22T03:28:13.744Z,15.07
2018-06-22T03:30:42.355Z,16.97
2018-06-22T03:33:10.980Z,17.10
2018-06-22T03:35:39.663Z,14.50
2018-06-22T03:38:08.382Z,14.03
2018-06-22T03:40:37.034Z,14.47
2018-06-22T03:43:05.679Z,14.03
2018-06-22T03:45:34.309Z,14.00
2018-06-22T03:48:02.966Z,15.10
2018-06-22T03:50:31.675Z,13.67
2018-06-22T03:53:00.394Z,13.53
2018-06-22T03:55:29.081Z,15.10
2018-06-22T03:57:57.838Z,14.27
2018-06-22T04:00:26.506Z,14.93
2018-06-22T04:02:55.142Z,14.63
2018-06-22T04:05:23.811Z,14.33
2018-06-22T04:07:52.442Z,15.17
2018-06-22T04:10:21.112Z,15.07
2018-06-22T04:12:49.761Z,14.33
2018-06-22T04:15:18.888Z,14.60
2018-06-22T04:17:53.659Z,14.67
2018-06-22T04:20:24.747Z,14.50
2018-06-22T04:22:53.779Z,14.90
2018-06-22T04:25:23.433Z,14.47
2018-06-22T04:27:52.702Z,15.00
2018-06-22T04:30:21.393Z,14.77
2018-06-22T04:32:50.749Z,14.33
2018-06-22T04:35:19.374Z,15.47
2018-06-22T04:37:48.035Z,15.03
2018-06-22T04:40:16.695Z,15.00
2018-06-22T04:42:45.335Z,14.67
2018-06-22T04:45:14.020Z,15.10
2018-06-22T04:47:42.685Z,15.10
2018-06-22T04:50:12.192Z,15.43
2018-06-22T04:52:40.822Z,15.83
2018-06-22T04:55:09.672Z,15.97
2018-06-22T04:57:38.318Z,16.07
2018-06-22T05:00:07.139Z,15.70
2018-06-22T05:02:35.793Z,15.33
2018-06-22T05:05:04.562Z,15.50
2018-06-22T05:07:33.203Z,16.57
2018-06-22T05:10:01.875Z,15.77
2018-06-22T05:12:30.490Z,16.03
2018-06-22T05:14:59.171Z,16.33
2018-06-22T05:17:27.805Z,16.37
2018-06-22T05:19:56.458Z,16.00
2018-06-22T05:22:25.174Z,16.20
2018-06-22T05:24:53.876Z,15.33
2018-06-22T05:27:22.558Z,15.80
2018-06-22T05:29:51.261Z,15.33
2018-06-22T05:32:19.953Z,15.40
2018-06-22T05:34:48.689Z,14.60
2018-06-22T05:37:17.938Z,15.97
2018-06-22T05:39:46.669Z,15.47
2018-06-22T05:42:15.315Z,15.70
2018-06-22T05:44:43.998Z,15.40
2018-06-22T05:47:12.618Z,15.17
2018-06-22T05:49:41.282Z,14.63
2018-06-22T05:52:09.980Z,15.63
2018-06-22T05:54:38.631Z,16.00
2018-06-22T05:57:07.252Z,16.33
2018-06-22T05:59:35.914Z,15.87
2018-06-22T06:02:04.517Z,16.30
2018-06-22T06:04:33.139Z,17.10
2018-06-22T06:07:01.950Z,16.03
2018-06-22T06:09:30.591Z,15.77
2018-06-22T06:11:59.214Z,15.37
2018-06-22T06:14:27.911Z,15.23
2018-06-22T06:16:57.617Z,15.50
2018-06-22T06:19:26.294Z,18.07
2018-06-22T06:21:54.982Z,16.00
2018-06-22T06:24:23.664Z,15.20
2018-06-22T06:26:52.304Z,16.77
2018-06-22T06:29:20.994Z,16.23
2018-06-22T06:31:50.276Z,15.70
2018-06-22T06:34:18.972Z,15.47
2018-06-22T06:36:47.617Z,16.00
2018-06-22T06:39:16.345Z,15.33
2018-06-22T06:41:45.077Z,14.47
2018-06-22T06:44:13.768Z,15.10
2018-06-22T06:46:42.671Z,14.27
2018-06-22T06:49:11.352Z,13.67
2018-06-22T06:51:40.085Z,14.87
2018-06-22T06:54:08.723Z,13.87
2018-06-22T06:56:37.339Z,12.63
2018-06-22T06:59:06.012Z,12.70
2018-06-22T07:01:34.698Z,12.67
2018-06-22T07:04:03.357Z,14.13
2018-06-22T07:06:31.986Z,14.13
2018-06-22T07:09:00.690Z,13.93
2018-06-22T07:11:29.404Z,12.70
2018-06-22T07:13:58.039Z,12.43
2018-06-22T07:16:26.683Z,12.23
2018-06-22T07:18:55.400Z,13.23
2018-06-22T07:21:24.068Z,12.80
2018-06-22T07:23:52.783Z,13.10
2018-06-22T07:26:21.477Z,13.17
2018-06-22T07:28:50.133Z,12.40
2018-06-22T07:31:18.791Z,11.10
2018-06-22T07:33:47.389Z,12.20
2018-06-22T07:36:16.101Z,12.20
2018-06-22T07:38:44.754Z,12.70
2018-06-22T07:41:13.428Z,12.43
2018-06-22T07:43:42.055Z,12.40
2018-06-22T07:46:10.703Z,12.30
2018-06-22T07:48:39.588Z,12.37
2018-06-22T07:51:08.222Z,12.50
2018-06-22T07:53:36.851Z,12.40
2018-06-22T07:56:05.562Z,13.13
2018-06-22T07:58:34.215Z,12.13
2018-06-22T08:01:02.848Z,12.97
2018-06-22T08:03:31.486Z,13.50
2018-06-22T08:06:00.126Z,12.70
2018-06-22T08:08:29.686Z,12.60
2018-06-22T08:10:58.320Z,10.93
2018-06-22T08:13:27.001Z,11.73
2018-06-22T08:15:55.738Z,12.07
2018-06-22T08:18:24.391Z,11.60
2018-06-22T08:20:53.128Z,12.18
2018-06-22T08:23:21.830Z,12.33
2018-06-22T08:25:51.320Z,12.88
2018-06-22T08:28:19.995Z,12.43
2018-06-22T08:30:48.667Z,12.90
2018-06-22T08:33:17.582Z,11.90
2018-06-22T08:35:46.562Z,11.55
2018-06-22T08:38:15.195Z,11.43
2018-06-22T08:40:43.930Z,12.75
2018-06-22T08:43:13.394Z,12.73
2018-06-22T08:45:42.031Z,11.93
2018-06-22T08:48:10.672Z,12.28
2018-06-22T08:50:39.286Z,11.55
2018-06-22T08:53:07.937Z,11.63
2018-06-22T08:55:36.581Z,11.90
2018-06-22T08:58:05.199Z,12.03
2018-06-22T09:00:33.853Z,12.00
2018-06-22T09:03:02.595Z,11.97
2018-06-22T09:05:31.272Z,13.20
2018-06-22T09:08:00.032Z,12.65
2018-06-22T09:10:28.639Z,11.68
2018-06-22T09:12:57.336Z,10.68
2018-06-22T09:15:26.006Z,11.25
2018-06-22T09:17:54.690Z,11.57
2018-06-22T09:20:23.353Z,11.40
2018-06-22T09:22:52.219Z,11.97
2018-06-22T09:25:20.866Z,11.63
2018-06-22T09:27:49.576Z,10.82
2018-06-22T09:30:18.273Z,11.55
2018-06-22T09:32:47.138Z,11.08
2018-06-22T09:35:15.786Z,11.43
2018-06-22T09:37:44.460Z,11.30
2018-06-22T09:40:13.106Z,10.23
2018-06-22T09:42:41.809Z,11.00
2018-06-22T09:45:10.489Z,11.18
2018-06-22T09:47:39.188Z,10.78
2018-06-22T09:50:07.839Z,11.10
2018-06-22T09:52:36.592Z,10.58
2018-06-22T09:55:05.375Z,10.50
2018-06-22T09:57:33.964Z,11.53
2018-06-22T10:00:02.669Z,11.20
2018-06-22T10:02:31.351Z,10.75
2018-06-22T10:04:59.951Z,10.75
2018-06-22T10:07:28.579Z,10.93
2018-06-22T10:09:57.345Z,9.93
2018-06-22T10:12:26.673Z,9.60
2018-06-22T10:14:55.326Z,9.23
2018-06-22T10:17:23.932Z,9.33
2018-06-22T10:19:52.618Z,10.50
2018-06-22T10:22:21.229Z,10.72
2018-06-22T10:24:49.883Z,17.12
2018-06-22T10:27:18.610Z,9.80
2018-06-22T10:29:47.341Z,9.70
2018-06-22T10:32:16.440Z,9.80
2018-06-22T10:34:45.127Z,10.13
2018-06-22T10:37:13.802Z,9.10
2018-06-22T10:39:42.489Z,10.15
2018-06-22T10:42:11.135Z,9.83
2018-06-22T10:44:39.895Z,9.75
2018-06-22T10:47:08.608Z,9.73
2018-06-22T10:49:37.388Z,9.60
2018-06-22T10:52:06.066Z,9.93
2018-06-22T10:54:34.719Z,9.30
2018-06-22T10:57:03.413Z,8.70
2018-06-22T10:59:32.814Z,9.10
2018-06-22T11:02:01.503Z,8.93
2018-06-22T11:04:30.126Z,9.23
2018-06-22T11:06:58.825Z,10.08
2018-06-22T11:09:27.478Z,8.90
2018-06-22T11:11:56.261Z,9.85
2018-06-22T11:14:25.097Z,9.20
2018-06-22T11:16:53.739Z,9.15
2018-06-22T11:19:22.386Z,9.50
2018-06-22T11:21:51.046Z,9.20
2018-06-22T11:24:19.706Z,7.80
2018-06-22T11:26:48.309Z,6.05
2018-06-22T11:29:16.933Z,7.58
2018-06-22T11:31:45.573Z,6.10
2018-06-22T11:34:14.669Z,4.77
2018-06-22T11:36:43.284Z,4.73
2018-06-22T11:39:12.559Z,4.57
2018-06-22T11:41:41.964Z,5.53
2018-06-22T11:44:11.093Z,6.73
2018-06-22T11:46:40.252Z,7.67
2018-06-22T11:49:09.078Z,9.07
2018-06-22T11:51:37.678Z,10.97
2018-06-22T11:54:06.395Z,11.77
2018-06-22T11:56:35.026Z,11.70
2018-06-22T11:59:03.717Z,12.50
2018-06-22T12:01:32.338Z,14.80
2018-06-22T12:04:01.007Z,12.07
2018-06-22T12:06:29.674Z,10.53
2018-06-22T12:08:58.357Z,16.23
2018-06-22T12:11:27.024Z,9.07
2018-06-22T12:13:55.639Z,12.67
2018-06-22T12:16:24.468Z,11.20
2018-06-22T12:18:53.119Z,11.00
2018-06-22T12:21:21.782Z,12.70
2018-06-22T12:23:50.464Z,12.73
2018-06-22T12:26:19.120Z,11.00
2018-06-22T12:28:47.722Z,13.20
2018-06-22T12:31:16.400Z,11.93
2018-06-22T12:33:45.088Z,12.57
2018-06-22T12:36:13.746Z,14.37
2018-06-22T12:38:43.403Z,14.80
2018-06-22T12:41:12.033Z,15.43
2018-06-22T12:43:40.747Z,14.83
2018-06-22T12:46:09.390Z,13.47
2018-06-22T12:48:38.066Z,15.33
2018-06-22T12:51:07.288Z,15.70
2018-06-22T12:53:36.536Z,13.90
2018-06-22T12:56:05.662Z,14.53
2018-06-22T12:58:34.278Z,13.70
2018-06-22T13:01:03.650Z,12.93
2018-06-22T13:03:32.269Z,13.47
2018-06-22T13:06:00.924Z,15.17
2018-06-22T13:08:29.563Z,12.83
2018-06-22T13:10:58.224Z,11.50
2018-06-22T13:13:26.849Z,10.33
2018-06-22T13:15:55.487Z,9.43
2018-06-22T13:18:24.084Z,9.20
2018-06-22T13:20:52.739Z,8.60
2018-06-22T13:23:21.332Z,10.32
2018-06-22T13:25:50.043Z,11.53
2018-06-22T13:28:18.951Z,9.05
2018-06-22T13:30:47.787Z,9.88
2018-06-22T13:33:16.519Z,9.33
2018-06-22T13:35:45.180Z,8.98
2018-06-22T13:38:13.815Z,10.03
2018-06-22T13:40:42.445Z,8.58
2018-06-22T13:43:11.080Z,9.45
2018-06-22T13:45:39.818Z,9.30
2018-06-22T13:48:08.916Z,8.33
2018-06-22T13:50:37.963Z,9.75
2018-06-22T13:53:06.908Z,9.18
2018-06-22T13:55:35.543Z,8.53
2018-06-22T13:58:04.276Z,8.03
2018-06-22T14:00:32.976Z,8.05
2018-06-22T14:03:01.612Z,8.03
2018-06-22T14:05:35.459Z,7.78
2018-06-22T14:08:04.190Z,8.03
2018-06-22T14:10:33.042Z,7.70
2018-06-22T14:13:01.731Z,7.17
2018-06-22T14:15:30.397Z,7.58
2018-06-22T14:17:59.026Z,7.47
2018-06-22T14:20:27.661Z,7.35
2018-06-22T14:22:56.326Z,8.70
2018-06-22T14:25:25.069Z,8.40
2018-06-22T14:27:53.718Z,9.25
2018-06-22T14:30:22.434Z,9.08
2018-06-22T14:32:51.118Z,9.33
2018-06-22T14:35:20.210Z,9.43
2018-06-22T14:37:48.932Z,9.80
2018-06-22T14:40:17.720Z,9.85
2018-06-22T14:42:46.433Z,10.25
2018-06-22T14:45:15.228Z,10.80
2018-06-22T14:47:43.822Z,10.03
2018-06-22T14:50:17.782Z,10.07
2018-06-22T14:52:47.038Z,9.53
2018-06-22T14:55:20.670Z,9.43
2018-06-22T14:57:54.425Z,9.97
2018-06-22T15:00:28.353Z,9.33
2018-06-22T15:03:02.200Z,8.40
2018-06-22T15:05:36.051Z,8.60
2018-06-22T15:08:06.435Z,9.57
2018-06-22T15:10:35.053Z,10.13
2018-06-22T15:13:03.655Z,8.97
2018-06-22T15:15:32.322Z,9.87
2018-06-22T15:18:01.052Z,9.97
2018-06-22T15:20:29.776Z,10.27
2018-06-22T15:22:58.494Z,11.03
2018-06-22T15:25:27.222Z,11.27
2018-06-22T15:27:55.859Z,11.83
2018-06-22T15:30:24.672Z,12.23
2018-06-22T15:32:53.332Z,11.97
2018-06-22T15:35:27.334Z,12.23
2018-06-22T15:38:01.160Z,11.20
2018-06-22T15:40:35.096Z,8.43
2018-06-22T15:43:09.270Z,7.97
2018-06-22T15:45:43.210Z,6.10
2018-06-22T15:48:17.037Z,5.27
2018-06-22T15:50:50.950Z,5.00
2018-06-22T15:53:24.857Z,5.80
2018-06-22T15:55:57.605Z,5.60
2018-06-22T15:58:26.285Z,6.23
2018-06-22T16:00:54.957Z,7.27
2018-06-22T16:03:28.773Z,6.30
2018-06-22T16:05:57.392Z,6.80
2018-06-22T16:08:26.058Z,6.80
2018-06-22T16:10:54.738Z,6.10
2018-06-22T16:13:23.480Z,6.20
2018-06-22T16:15:57.271Z,6.63
2018-06-22T16:18:31.043Z,6.90
2018-06-22T16:21:04.917Z,6.27
2018-06-22T16:23:38.746Z,6.47
2018-06-22T16:26:12.695Z,6.37
2018-06-22T16:28:41.409Z,6.50
2018-06-22T16:31:10.037Z,6.83
2018-06-22T16:33:42.774Z,6.70
2018-06-22T16:36:11.743Z,6.87
2018-06-22T16:38:40.356Z,7.10
2018-06-22T16:41:09.010Z,6.77
2018-06-22T16:43:37.624Z,6.57
2018-06-22T16:46:06.358Z,6.60
2018-06-22T16:48:34.984Z,6.47
2018-06-22T16:51:03.721Z,6.93
2018-06-22T16:53:32.399Z,6.77
2018-06-22T16:56:01.048Z,6.47
2018-06-22T16:58:34.966Z,6.43
2018-06-22T17:01:03.670Z,6.63
2018-06-22T17:03:32.353Z,6.70
2018-06-22T17:06:01.147Z,7.00
2018-06-22T17:08:34.920Z,7.60
2018-06-22T17:11:08.856Z,8.27
2018-06-22T17:13:42.884Z,8.43
2018-06-22T17:16:16.805Z,9.60
2018-06-22T17:18:51.587Z,11.00
2018-06-22T17:21:21.018Z,10.97
2018-06-22T17:23:49.673Z,10.50
2018-06-22T17:26:18.301Z,11.80
2018-06-22T17:28:46.985Z,13.30
2018-06-22T17:31:15.735Z,12.07
2018-06-22T17:33:44.436Z,13.03
2018-06-22T17:36:13.167Z,12.43
2018-06-22T17:38:41.776Z,13.87
2018-06-22T17:41:10.450Z,13.10
2018-06-22T17:43:39.148Z,12.77
2018-06-22T17:46:07.892Z,11.90
2018-06-22T17:48:36.567Z,12.80
2018-06-22T17:51:05.311Z,13.20
2018-06-22T17:53:33.983Z,12.87
2018-06-22T17:56:02.604Z,12.03
2018-06-22T17:58:31.205Z,12.90
2018-06-22T18:01:05.083Z,13.63
2018-06-22T18:03:38.945Z,12.87
2018-06-22T18:06:12.816Z,14.33
2018-06-22T18:08:46.449Z,14.90
2018-06-22T18:11:20.166Z,13.83
2018-06-22T18:13:54.803Z,14.70
2018-06-22T18:16:23.499Z,14.10
2018-06-22T18:18:52.245Z,12.77
2018-06-22T18:21:21.426Z,11.70
2018-06-22T18:23:50.126Z,13.70
2018-06-22T18:26:18.858Z,11.00
2018-06-22T18:28:47.519Z,12.40
2018-06-22T18:31:16.147Z,13.33
2018-06-22T18:33:44.763Z,13.13
2018-06-22T18:36:14.059Z,14.10
2018-06-22T18:38:42.776Z,14.13
2018-06-22T18:41:11.427Z,13.67
2018-06-22T18:43:45.315Z,14.40
2018-06-22T18:46:13.970Z,14.37
2018-06-22T18:48:42.659Z,14.17
2018-06-22T18:51:11.486Z,13.57
2018-06-22T18:53:45.359Z,14.50
2018-06-22T18:56:19.060Z,13.77
2018-06-22T18:58:52.838Z,13.63
2018-06-22T19:01:26.671Z,13.43
2018-06-22T19:03:55.574Z,12.37
2018-06-22T19:06:24.303Z,12.27
2018-06-22T19:08:52.991Z,11.37
2018-06-22T19:11:21.721Z,11.70
2018-06-22T19:13:50.434Z,11.57
2018-06-22T19:16:19.091Z,11.43
2018-06-22T19:18:47.898Z,11.07
2018-06-22T19:21:16.498Z,11.70
2018-06-22T19:23:45.233Z,11.00
2018-06-22T19:26:14.041Z,10.73
2018-06-22T19:28:42.679Z,11.30
2018-06-22T19:31:11.372Z,10.33
2018-06-22T19:33:40.054Z,11.97
2018-06-22T19:36:08.758Z,11.43
2018-06-22T19:38:37.511Z,12.20
2018-06-22T19:41:06.180Z,12.00
2018-06-22T19:43:39.978Z,11.43
2018-06-22T19:46:13.879Z,11.77
2018-06-22T19:48:47.782Z,13.17
2018-06-22T19:51:22.195Z,13.20
2018-06-22T19:53:55.905Z,12.70
2018-06-22T19:56:24.592Z,12.10
2018-06-22T19:58:53.290Z,12.93
2018-06-22T20:01:22.082Z,12.60
2018-06-22T20:03:50.795Z,13.53
2018-06-22T20:06:19.805Z,12.77
2018-06-22T20:08:48.816Z,13.60
2018-06-22T20:11:17.508Z,13.87
2018-06-22T20:13:46.524Z,13.60
2018-06-22T20:16:15.705Z,14.13
2018-06-22T20:18:44.515Z,14.37
2018-06-22T20:21:13.766Z,14.83
2018-06-22T20:23:42.426Z,12.93
2018-06-22T20:26:11.086Z,12.03
2018-06-22T20:28:39.758Z,10.07
2018-06-22T20:31:08.547Z,8.63
2018-06-22T20:33:37.402Z,7.73
2018-06-22T20:36:11.317Z,6.83
2018-06-22T20:38:45.211Z,7.10
2018-06-22T20:41:21.386Z,4.27
2018-06-22T20:43:55.230Z,4.50
2018-06-22T20:46:29.012Z,3.60
2018-06-22T20:49:02.702Z,3.40
2018-06-22T20:51:46.866Z,3.93
2018-06-22T20:54:15.522Z,3.60
2018-06-22T20:56:44.190Z,3.20
2018-06-22T20:59:12.825Z,3.40
2018-06-22T21:01:41.535Z,2.90
2018-06-22T21:04:10.166Z,2.60
2018-06-22T21:06:39.188Z,2.87
2018-06-22T21:09:09.096Z,3.40
2018-06-22T21:11:37.786Z,3.27
2018-06-22T21:14:06.577Z,3.47
2018-06-22T21:16:35.799Z,3.07
2018-06-22T21:19:04.444Z,3.50
2018-06-22T21:21:38.204Z,3.30
2018-06-22T21:24:06.824Z,4.50
2018-06-22T21:26:35.552Z,2.87
2018-06-22T21:29:09.448Z,4.40
2018-06-22T21:31:43.324Z,3.83
2018-06-22T21:34:17.229Z,4.63
2018-06-22T21:36:50.934Z,4.23
2018-06-22T21:39:19.724Z,4.17
2018-06-22T21:41:48.357Z,4.07
2018-06-22T21:44:17.049Z,4.60
2018-06-22T21:46:45.757Z,4.63
2018-06-22T21:49:14.419Z,4.40
2018-06-22T21:51:43.061Z,4.73
2018-06-22T21:54:12.433Z,4.50
2018-06-22T21:56:41.058Z,4.67
2018-06-22T21:59:09.757Z,4.33
2018-06-22T22:01:38.531Z,4.77
2018-06-22T22:04:07.123Z,5.77
2018-06-22T22:06:35.828Z,5.60
2018-06-22T22:09:06.378Z,4.97
2018-06-22T22:11:40.157Z,4.73
2018-06-22T22:14:08.861Z,5.50
2018-06-22T22:16:37.451Z,5.40
2018-06-22T22:19:06.090Z,5.87
2018-06-22T22:21:34.936Z,5.90
2018-06-22T22:24:03.730Z,5.87
2018-06-22T22:26:32.432Z,4.80
2018-06-22T22:29:01.070Z,5.50
2018-06-22T22:31:29.869Z,5.50
2018-06-22T22:33:58.511Z,5.93
2018-06-22T22:36:27.185Z,6.47
2018-06-22T22:38:55.982Z,5.67
2018-06-22T22:41:24.617Z,6.17
2018-06-22T22:43:53.282Z,6.90
2018-06-22T22:46:22.052Z,7.00
2018-06-22T22:48:50.667Z,6.80
2018-06-22T22:51:19.455Z,6.07
2018-06-22T22:53:48.123Z,7.43
2018-06-22T22:56:16.792Z,6.97
2018-06-22T22:58:45.456Z,7.10
2018-06-22T23:01:14.176Z,6.53
2018-06-22T23:03:42.886Z,7.27
2018-06-22T23:06:11.528Z,6.87
2018-06-22T23:08:40.280Z,7.70
2018-06-22T23:11:09.013Z,7.10
2018-06-22T23:13:37.750Z,7.07
2018-06-22T23:16:06.647Z,7.53
2018-06-22T23:18:35.291Z,7.63
2018-06-22T23:21:04.033Z,7.47
2018-06-22T23:23:37.536Z,7.17
2018-06-22T23:26:06.542Z,7.40
2018-06-22T23:28:35.249Z,7.00
2018-06-22T23:31:05.196Z,6.37
2018-06-22T23:33:34.191Z,7.20
2018-06-22T23:36:03.846Z,6.00
2018-06-22T23:38:33.087Z,7.50
2018-06-22T23:41:01.732Z,6.90
2018-06-22T23:43:30.642Z,6.47
2018-06-22T23:45:59.290Z,6.13
2018-06-22T23:48:27.901Z,6.90
2018-06-22T23:50:56.547Z,6.53
2018-06-22T23:53:25.182Z,6.97
2018-06-22T23:55:53.850Z,7.37
2018-06-22T23:58:22.543Z,6.10
